sensor_id;sensor_type;location;lat;lon;timestamp;P1;durP1;ratioP1;P2;durP2;ratioP2
10890;SDS011;5498;50.928;11.598;2023-03-25T00:01:32;816.17;;;727.77;;
10890;SDS011;5498;50.928;11.598;2023-03-25T00:04:36;812.37;;;723.83;;
10890;SDS011;5498;50.928;11.598;2023-03-25T00:07:41;810.33;;;722.27;;
10890;SDS011;5498;50.928;11.598;2023-03-25T00:10:43;800.13;;;712.43;;
10890;SDS011;5498;50.928;11.598;2023-03-25T00:13:45;808.97;;;720.87;;
10890;SDS011;5498;50.928;11.598;2023-03-25T00:16:48;807.83;;;719.83;;
10890;SDS011;5498;50.928;11.598;2023-03-25T00:19:51;814.33;;;725.93;;
10890;SDS011;5498;50.928;11.598;2023-03-25T00:22:55;821.90;;;733.27;;
10890;SDS011;5498;50.928;11.598;2023-03-25T00:25:57;801.80;;;714.23;;
10890;SDS011;5498;50.928;11.598;2023-03-25T00:29:00;796.50;;;709.40;;
10890;SDS011;5498;50.928;11.598;2023-03-25T00:32:02;791.33;;;704.47;;
10890;SDS011;5498;50.928;11.598;2023-03-25T00:35:04;799.87;;;712.90;;
10890;SDS011;5498;50.928;11.598;2023-03-25T00:38:08;793.37;;;706.30;;
10890;SDS011;5498;50.928;11.598;2023-03-25T00:41:11;804.03;;;716.20;;
10890;SDS011;5498;50.928;11.598;2023-03-25T00:44:16;799.30;;;711.80;;
10890;SDS011;5498;50.928;11.598;2023-03-25T00:47:18;793.77;;;707.03;;
10890;SDS011;5498;50.928;11.598;2023-03-25T00:50:20;801.03;;;713.33;;
10890;SDS011;5498;50.928;11.598;2023-03-25T00:53:24;792.47;;;705.33;;
10890;SDS011;5498;50.928;11.598;2023-03-25T00:56:27;789.10;;;701.97;;
10890;SDS011;5498;50.928;11.598;2023-03-25T00:59:30;815.73;;;727.10;;
10890;SDS011;5498;50.928;11.598;2023-03-25T01:02:32;788.77;;;701.80;;
10890;SDS011;5498;50.928;11.598;2023-03-25T01:05:34;782.17;;;695.37;;
10890;SDS011;5498;50.928;11.598;2023-03-25T01:08:37;796.20;;;708.83;;
10890;SDS011;5498;50.928;11.598;2023-03-25T01:11:40;780.83;;;693.67;;
10890;SDS011;5498;50.928;11.598;2023-03-25T01:14:44;800.10;;;712.17;;
10890;SDS011;5498;50.928;11.598;2023-03-25T01:17:46;817.23;;;730.37;;
10890;SDS011;5498;50.928;11.598;2023-03-25T01:20:48;831.67;;;745.77;;
10890;SDS011;5498;50.928;11.598;2023-03-25T01:23:51;816.77;;;728.17;;
10890;SDS011;5498;50.928;11.598;2023-03-25T01:26:53;786.00;;;696.70;;
10890;SDS011;5498;50.928;11.598;2023-03-25T01:29:55;778.57;;;681.30;;
10890;SDS011;5498;50.928;11.598;2023-03-25T01:32:56;773.43;;;667.40;;
10890;SDS011;5498;50.928;11.598;2023-03-25T01:35:58;786.20;;;695.03;;
10890;SDS011;5498;50.928;11.598;2023-03-25T01:39:02;779.83;;;690.40;;
10890;SDS011;5498;50.928;11.598;2023-03-25T01:42:05;774.00;;;678.70;;
10890;SDS011;5498;50.928;11.598;2023-03-25T01:45:12;792.17;;;704.87;;
10890;SDS011;5498;50.928;11.598;2023-03-25T01:48:21;782.60;;;685.77;;
10890;SDS011;5498;50.928;11.598;2023-03-25T01:51:27;784.77;;;694.27;;
10890;SDS011;5498;50.928;11.598;2023-03-25T01:54:34;788.07;;;701.03;;
10890;SDS011;5498;50.928;11.598;2023-03-25T01:57:38;796.17;;;708.67;;
10890;SDS011;5498;50.928;11.598;2023-03-25T02:00:45;784.40;;;697.70;;
10890;SDS011;5498;50.928;11.598;2023-03-25T02:03:49;775.67;;;689.47;;
10890;SDS011;5498;50.928;11.598;2023-03-25T02:06:52;784.67;;;697.90;;
10890;SDS011;5498;50.928;11.598;2023-03-25T02:09:57;777.37;;;691.40;;
10890;SDS011;5498;50.928;11.598;2023-03-25T02:13:01;768.27;;;681.17;;
10890;SDS011;5498;50.928;11.598;2023-03-25T02:16:10;784.10;;;697.90;;
10890;SDS011;5498;50.928;11.598;2023-03-25T02:19:34;773.03;;;684.00;;
10890;SDS011;5498;50.928;11.598;2023-03-25T02:27:13;772.73;;;676.17;;
10890;SDS011;5498;50.928;11.598;2023-03-25T02:30:33;778.23;;;678.90;;
10890;SDS011;5498;50.928;11.598;2023-03-25T02:33:56;772.97;;;678.43;;
10890;SDS011;5498;50.928;11.598;2023-03-25T02:37:39;771.77;;;673.33;;
10890;SDS011;5498;50.928;11.598;2023-03-25T02:41:05;764.77;;;667.63;;
10890;SDS011;5498;50.928;11.598;2023-03-25T02:44:15;766.57;;;675.80;;
10890;SDS011;5498;50.928;11.598;2023-03-25T02:47:25;773.80;;;686.93;;
10890;SDS011;5498;50.928;11.598;2023-03-25T02:50:33;786.37;;;700.20;;
10890;SDS011;5498;50.928;11.598;2023-03-25T02:53:40;781.93;;;695.83;;
10890;SDS011;5498;50.928;11.598;2023-03-25T02:56:47;805.50;;;718.07;;
10890;SDS011;5498;50.928;11.598;2023-03-25T02:59:56;792.87;;;706.13;;
10890;SDS011;5498;50.928;11.598;2023-03-25T03:03:00;794.33;;;707.63;;
10890;SDS011;5498;50.928;11.598;2023-03-25T03:06:04;792.50;;;705.67;;
10890;SDS011;5498;50.928;11.598;2023-03-25T03:09:12;798.30;;;711.73;;
10890;SDS011;5498;50.928;11.598;2023-03-25T03:12:37;777.80;;;692.20;;
10890;SDS011;5498;50.928;11.598;2023-03-25T03:15:52;774.30;;;688.87;;
10890;SDS011;5498;50.928;11.598;2023-03-25T03:19:05;803.20;;;716.30;;
10890;SDS011;5498;50.928;11.598;2023-03-25T03:22:22;805.90;;;718.90;;
10890;SDS011;5498;50.928;11.598;2023-03-25T03:25:39;828.37;;;739.93;;
10890;SDS011;5498;50.928;11.598;2023-03-25T03:28:50;820.90;;;733.00;;
10890;SDS011;5498;50.928;11.598;2023-03-25T03:31:59;834.90;;;745.97;;
10890;SDS011;5498;50.928;11.598;2023-03-25T03:35:07;842.00;;;753.10;;
10890;SDS011;5498;50.928;11.598;2023-03-25T03:38:15;841.00;;;752.17;;
10890;SDS011;5498;50.928;11.598;2023-03-25T03:41:22;832.80;;;744.37;;
10890;SDS011;5498;50.928;11.598;2023-03-25T03:44:28;824.17;;;736.50;;
10890;SDS011;5498;50.928;11.598;2023-03-25T03:47:34;832.47;;;744.47;;
10890;SDS011;5498;50.928;11.598;2023-03-25T03:50:40;833.50;;;744.90;;
10890;SDS011;5498;50.928;11.598;2023-03-25T03:53:50;837.20;;;748.87;;
10890;SDS011;5498;50.928;11.598;2023-03-25T03:56:59;842.40;;;753.53;;
10890;SDS011;5498;50.928;11.598;2023-03-25T04:00:07;838.43;;;750.03;;
10890;SDS011;5498;50.928;11.598;2023-03-25T04:03:16;830.77;;;742.47;;
10890;SDS011;5498;50.928;11.598;2023-03-25T04:06:23;841.80;;;753.50;;
10890;SDS011;5498;50.928;11.598;2023-03-25T04:09:35;809.63;;;722.70;;
10890;SDS011;5498;50.928;11.598;2023-03-25T04:12:47;811.07;;;723.90;;
10890;SDS011;5498;50.928;11.598;2023-03-25T04:15:52;818.37;;;731.47;;
10890;SDS011;5498;50.928;11.598;2023-03-25T04:18:54;813.07;;;726.37;;
10890;SDS011;5498;50.928;11.598;2023-03-25T04:21:57;824.80;;;737.47;;
10890;SDS011;5498;50.928;11.598;2023-03-25T04:25:00;814.53;;;727.47;;
10890;SDS011;5498;50.928;11.598;2023-03-25T04:28:03;809.70;;;723.17;;
10890;SDS011;5498;50.928;11.598;2023-03-25T04:31:08;837.03;;;748.73;;
10890;SDS011;5498;50.928;11.598;2023-03-25T04:34:14;830.27;;;742.27;;
10890;SDS011;5498;50.928;11.598;2023-03-25T04:37:16;804.53;;;717.23;;
10890;SDS011;5498;50.928;11.598;2023-03-25T04:40:18;798.13;;;710.90;;
10890;SDS011;5498;50.928;11.598;2023-03-25T04:43:21;810.30;;;722.90;;
10890;SDS011;5498;50.928;11.598;2023-03-25T04:46:23;799.50;;;713.03;;
10890;SDS011;5498;50.928;11.598;2023-03-25T04:49:25;793.60;;;707.33;;
10890;SDS011;5498;50.928;11.598;2023-03-25T04:52:27;774.63;;;689.30;;
10890;SDS011;5498;50.928;11.598;2023-03-25T04:55:29;803.10;;;716.10;;
10890;SDS011;5498;50.928;11.598;2023-03-25T04:58:35;799.17;;;712.53;;
10890;SDS011;5498;50.928;11.598;2023-03-25T05:01:37;794.13;;;707.43;;
10890;SDS011;5498;50.928;11.598;2023-03-25T05:04:41;806.37;;;719.20;;
10890;SDS011;5498;50.928;11.598;2023-03-25T05:07:46;830.23;;;741.70;;
10890;SDS011;5498;50.928;11.598;2023-03-25T05:10:50;818.43;;;730.70;;
10890;SDS011;5498;50.928;11.598;2023-03-25T05:13:53;794.23;;;707.90;;
10890;SDS011;5498;50.928;11.598;2023-03-25T05:16:56;811.00;;;723.53;;
10890;SDS011;5498;50.928;11.598;2023-03-25T05:19:59;814.03;;;726.43;;
10890;SDS011;5498;50.928;11.598;2023-03-25T05:23:01;837.60;;;749.00;;
10890;SDS011;5498;50.928;11.598;2023-03-25T05:26:03;828.50;;;740.53;;
10890;SDS011;5498;50.928;11.598;2023-03-25T05:29:07;833.70;;;745.33;;
10890;SDS011;5498;50.928;11.598;2023-03-25T05:32:12;830.77;;;742.67;;
10890;SDS011;5498;50.928;11.598;2023-03-25T05:35:16;820.73;;;733.50;;
10890;SDS011;5498;50.928;11.598;2023-03-25T05:38:19;808.27;;;721.37;;
10890;SDS011;5498;50.928;11.598;2023-03-25T05:41:21;809.30;;;722.40;;
10890;SDS011;5498;50.928;11.598;2023-03-25T05:44:32;823.40;;;735.60;;
10890;SDS011;5498;50.928;11.598;2023-03-25T05:47:34;824.13;;;736.23;;
10890;SDS011;5498;50.928;11.598;2023-03-25T05:50:36;820.77;;;733.30;;
10890;SDS011;5498;50.928;11.598;2023-03-25T05:53:41;813.27;;;726.17;;
10890;SDS011;5498;50.928;11.598;2023-03-25T05:56:44;810.70;;;723.90;;
10890;SDS011;5498;50.928;11.598;2023-03-25T05:59:47;797.60;;;710.63;;
10890;SDS011;5498;50.928;11.598;2023-03-25T06:02:49;795.27;;;708.63;;
10890;SDS011;5498;50.928;11.598;2023-03-25T06:05:51;774.67;;;689.03;;
10890;SDS011;5498;50.928;11.598;2023-03-25T06:08:53;780.33;;;694.43;;
10890;SDS011;5498;50.928;11.598;2023-03-25T06:11:55;772.07;;;685.57;;
10890;SDS011;5498;50.928;11.598;2023-03-25T06:14:59;770.27;;;684.53;;
10890;SDS011;5498;50.928;11.598;2023-03-25T06:18:01;779.83;;;693.70;;
10890;SDS011;5498;50.928;11.598;2023-03-25T06:21:03;765.00;;;669.30;;
10890;SDS011;5498;50.928;11.598;2023-03-25T06:24:06;757.20;;;655.80;;
10890;SDS011;5498;50.928;11.598;2023-03-25T06:27:11;753.10;;;645.47;;
10890;SDS011;5498;50.928;11.598;2023-03-25T06:30:18;758.90;;;652.43;;
10890;SDS011;5498;50.928;11.598;2023-03-25T06:33:21;753.47;;;643.83;;
10890;SDS011;5498;50.928;11.598;2023-03-25T06:36:23;755.70;;;644.17;;
10890;SDS011;5498;50.928;11.598;2023-03-25T06:39:26;753.90;;;654.50;;
10890;SDS011;5498;50.928;11.598;2023-03-25T06:42:30;758.30;;;647.70;;
10890;SDS011;5498;50.928;11.598;2023-03-25T06:45:34;767.13;;;675.03;;
10890;SDS011;5498;50.928;11.598;2023-03-25T06:48:36;769.33;;;680.67;;
10890;SDS011;5498;50.928;11.598;2023-03-25T06:51:38;770.43;;;682.30;;
10890;SDS011;5498;50.928;11.598;2023-03-25T06:54:40;757.77;;;652.20;;
10890;SDS011;5498;50.928;11.598;2023-03-25T06:57:42;771.17;;;678.57;;
10890;SDS011;5498;50.928;11.598;2023-03-25T07:00:45;770.87;;;673.73;;
10890;SDS011;5498;50.928;11.598;2023-03-25T07:03:47;772.87;;;684.90;;
10890;SDS011;5498;50.928;11.598;2023-03-25T07:06:49;771.80;;;675.23;;
10890;SDS011;5498;50.928;11.598;2023-03-25T07:09:51;768.63;;;675.93;;
10890;SDS011;5498;50.928;11.598;2023-03-25T07:12:54;767.57;;;663.37;;
10890;SDS011;5498;50.928;11.598;2023-03-25T07:15:58;767.57;;;671.03;;
10890;SDS011;5498;50.928;11.598;2023-03-25T07:19:00;763.57;;;661.20;;
10890;SDS011;5498;50.928;11.598;2023-03-25T07:22:02;760.73;;;654.87;;
10890;SDS011;5498;50.928;11.598;2023-03-25T07:25:04;769.10;;;676.60;;
10890;SDS011;5498;50.928;11.598;2023-03-25T07:28:07;766.43;;;662.47;;
10890;SDS011;5498;50.928;11.598;2023-03-25T07:31:11;765.10;;;655.87;;
10890;SDS011;5498;50.928;11.598;2023-03-25T07:34:15;762.87;;;649.77;;
10890;SDS011;5498;50.928;11.598;2023-03-25T07:37:17;758.87;;;643.63;;
10890;SDS011;5498;50.928;11.598;2023-03-25T07:40:18;751.23;;;625.33;;
10890;SDS011;5498;50.928;11.598;2023-03-25T07:43:20;752.00;;;619.17;;
10890;SDS011;5498;50.928;11.598;2023-03-25T07:46:23;748.70;;;623.37;;
10890;SDS011;5498;50.928;11.598;2023-03-25T07:49:25;749.10;;;621.30;;
10890;SDS011;5498;50.928;11.598;2023-03-25T07:52:27;746.03;;;614.57;;
10890;SDS011;5498;50.928;11.598;2023-03-25T07:55:29;746.53;;;616.20;;
10890;SDS011;5498;50.928;11.598;2023-03-25T07:58:31;756.20;;;638.03;;
10890;SDS011;5498;50.928;11.598;2023-03-25T08:01:34;763.27;;;665.13;;
10890;SDS011;5498;50.928;11.598;2023-03-25T08:04:36;760.70;;;669.43;;
10890;SDS011;5498;50.928;11.598;2023-03-25T08:07:38;759.43;;;666.90;;
10890;SDS011;5498;50.928;11.598;2023-03-25T08:10:41;774.80;;;689.50;;
10890;SDS011;5498;50.928;11.598;2023-03-25T08:13:43;782.43;;;697.17;;
10890;SDS011;5498;50.928;11.598;2023-03-25T08:16:46;795.07;;;709.57;;
10890;SDS011;5498;50.928;11.598;2023-03-25T08:19:48;784.90;;;700.57;;
10890;SDS011;5498;50.928;11.598;2023-03-25T08:22:50;812.90;;;726.73;;
10890;SDS011;5498;50.928;11.598;2023-03-25T08:25:53;827.73;;;740.57;;
10890;SDS011;5498;50.928;11.598;2023-03-25T08:28:55;812.83;;;726.90;;
10890;SDS011;5498;50.928;11.598;2023-03-25T08:32:00;814.30;;;728.27;;
10890;SDS011;5498;50.928;11.598;2023-03-25T08:35:02;803.93;;;718.37;;
10890;SDS011;5498;50.928;11.598;2023-03-25T08:38:05;795.90;;;711.13;;
10890;SDS011;5498;50.928;11.598;2023-03-25T08:41:06;798.93;;;714.03;;
10890;SDS011;5498;50.928;11.598;2023-03-25T08:44:08;793.30;;;708.73;;
10890;SDS011;5498;50.928;11.598;2023-03-25T08:47:11;802.03;;;717.03;;
10890;SDS011;5498;50.928;11.598;2023-03-25T08:50:13;771.43;;;688.00;;
10890;SDS011;5498;50.928;11.598;2023-03-25T08:53:15;736.67;;;654.27;;
10890;SDS011;5498;50.928;11.598;2023-03-25T08:56:17;767.50;;;684.07;;
10890;SDS011;5498;50.928;11.598;2023-03-25T08:59:19;764.47;;;681.00;;
10890;SDS011;5498;50.928;11.598;2023-03-25T09:02:22;762.23;;;678.73;;
10890;SDS011;5498;50.928;11.598;2023-03-25T09:05:25;777.17;;;692.37;;
10890;SDS011;5498;50.928;11.598;2023-03-25T09:08:27;787.00;;;701.30;;
10890;SDS011;5498;50.928;11.598;2023-03-25T09:11:29;750.93;;;666.83;;
10890;SDS011;5498;50.928;11.598;2023-03-25T09:14:31;808.93;;;722.97;;
10890;SDS011;5498;50.928;11.598;2023-03-25T09:17:35;814.17;;;728.50;;
10890;SDS011;5498;50.928;11.598;2023-03-25T09:20:37;846.00;;;759.03;;
10890;SDS011;5498;50.928;11.598;2023-03-25T09:23:40;852.00;;;765.73;;
10890;SDS011;5498;50.928;11.598;2023-03-25T09:26:42;879.67;;;792.03;;
10890;SDS011;5498;50.928;11.598;2023-03-25T09:29:44;871.93;;;785.57;;
10890;SDS011;5498;50.928;11.598;2023-03-25T09:32:47;861.77;;;776.30;;
10890;SDS011;5498;50.928;11.598;2023-03-25T09:35:49;850.40;;;765.50;;
10890;SDS011;5498;50.928;11.598;2023-03-25T09:38:50;851.30;;;766.73;;
10890;SDS011;5498;50.928;11.598;2023-03-25T09:45:36;836.67;;;753.07;;
10890;SDS011;5498;50.928;11.598;2023-03-25T09:48:44;890.97;;;803.97;;
10890;SDS011;5498;50.928;11.598;2023-03-25T09:51:48;935.37;;;844.83;;
10890;SDS011;5498;50.928;11.598;2023-03-25T09:54:52;877.63;;;791.37;;
10890;SDS011;5498;50.928;11.598;2023-03-25T09:58:01;963.17;;;870.77;;
10890;SDS011;5498;50.928;11.598;2023-03-25T10:01:26;910.57;;;821.57;;
10890;SDS011;5498;50.928;11.598;2023-03-25T10:04:51;878.80;;;791.37;;
10890;SDS011;5498;50.928;11.598;2023-03-25T10:08:22;813.27;;;730.07;;
10890;SDS011;5498;50.928;11.598;2023-03-25T10:11:35;910.40;;;819.83;;
10890;SDS011;5498;50.928;11.598;2023-03-25T10:14:47;910.50;;;820.83;;
10890;SDS011;5498;50.928;11.598;2023-03-25T10:18:04;908.93;;;820.43;;
10890;SDS011;5498;50.928;11.598;2023-03-25T10:21:29;954.53;;;863.40;;
10890;SDS011;5498;50.928;11.598;2023-03-25T10:24:38;105.10;;;53.07;;
10890;SDS011;5498;50.928;11.598;2023-03-25T10:27:46;128.57;;;59.70;;
10890;SDS011;5498;50.928;11.598;2023-03-25T10:30:51;135.17;;;65.07;;
10890;SDS011;5498;50.928;11.598;2023-03-25T10:33:55;138.57;;;65.10;;
10890;SDS011;5498;50.928;11.598;2023-03-25T10:37:02;142.30;;;69.10;;
10890;SDS011;5498;50.928;11.598;2023-03-25T10:40:14;144.37;;;70.43;;
10890;SDS011;5498;50.928;11.598;2023-03-25T10:43:23;140.77;;;67.40;;
10890;SDS011;5498;50.928;11.598;2023-03-25T10:46:28;148.77;;;73.03;;
10890;SDS011;5498;50.928;11.598;2023-03-25T10:49:36;152.83;;;77.67;;
10890;SDS011;5498;50.928;11.598;2023-03-25T10:52:43;152.07;;;73.70;;
10890;SDS011;5498;50.928;11.598;2023-03-25T10:55:46;156.47;;;77.27;;
10890;SDS011;5498;50.928;11.598;2023-03-25T10:58:55;156.33;;;78.87;;
10890;SDS011;5498;50.928;11.598;2023-03-25T11:01:58;155.23;;;78.30;;
10890;SDS011;5498;50.928;11.598;2023-03-25T11:05:05;150.57;;;75.60;;
10890;SDS011;5498;50.928;11.598;2023-03-25T11:08:10;144.03;;;72.23;;
10890;SDS011;5498;50.928;11.598;2023-03-25T11:11:14;143.47;;;71.77;;
10890;SDS011;5498;50.928;11.598;2023-03-25T11:14:16;144.27;;;71.77;;
10890;SDS011;5498;50.928;11.598;2023-03-25T11:17:23;149.07;;;77.43;;
10890;SDS011;5498;50.928;11.598;2023-03-25T11:20:27;150.60;;;77.67;;
10890;SDS011;5498;50.928;11.598;2023-03-25T11:23:33;149.83;;;77.57;;
10890;SDS011;5498;50.928;11.598;2023-03-25T11:26:43;602.57;;;538.90;;
10890;SDS011;5498;50.928;11.598;2023-03-25T11:29:51;928.10;;;836.80;;
10890;SDS011;5498;50.928;11.598;2023-03-25T11:32:56;936.93;;;846.07;;
10890;SDS011;5498;50.928;11.598;2023-03-25T11:36:09;133.37;;;62.67;;
10890;SDS011;5498;50.928;11.598;2023-03-25T11:39:33;140.47;;;68.87;;
10890;SDS011;5498;50.928;11.598;2023-03-25T11:42:38;146.07;;;73.93;;
10890;SDS011;5498;50.928;11.598;2023-03-25T11:45:45;144.83;;;73.10;;
10890;SDS011;5498;50.928;11.598;2023-03-25T11:48:47;142.20;;;71.10;;
10890;SDS011;5498;50.928;11.598;2023-03-25T11:51:50;140.13;;;68.97;;
10890;SDS011;5498;50.928;11.598;2023-03-25T11:55:02;142.43;;;72.03;;
10890;SDS011;5498;50.928;11.598;2023-03-25T11:58:05;144.77;;;73.23;;
10890;SDS011;5498;50.928;11.598;2023-03-25T12:01:16;145.17;;;73.33;;
10890;SDS011;5498;50.928;11.598;2023-03-25T12:04:23;145.53;;;74.10;;
10890;SDS011;5498;50.928;11.598;2023-03-25T12:07:25;152.93;;;75.20;;
10890;SDS011;5498;50.928;11.598;2023-03-25T12:10:33;163.90;;;79.90;;
10890;SDS011;5498;50.928;11.598;2023-03-25T12:13:48;164.80;;;82.23;;
10890;SDS011;5498;50.928;11.598;2023-03-25T12:17:21;159.40;;;80.30;;
10890;SDS011;5498;50.928;11.598;2023-03-25T12:20:38;164.67;;;83.23;;
10890;SDS011;5498;50.928;11.598;2023-03-25T12:23:54;167.20;;;86.57;;
10890;SDS011;5498;50.928;11.598;2023-03-25T12:27:15;163.40;;;84.30;;
10890;SDS011;5498;50.928;11.598;2023-03-25T12:30:30;164.73;;;84.90;;
10890;SDS011;5498;50.928;11.598;2023-03-25T12:33:48;162.37;;;81.40;;
10890;SDS011;5498;50.928;11.598;2023-03-25T12:37:01;161.33;;;82.67;;
10890;SDS011;5498;50.928;11.598;2023-03-25T12:40:21;177.47;;;105.53;;
10890;SDS011;5498;50.928;11.598;2023-03-25T12:43:37;162.67;;;84.93;;
10890;SDS011;5498;50.928;11.598;2023-03-25T12:47:00;164.93;;;84.10;;
10890;SDS011;5498;50.928;11.598;2023-03-25T12:50:18;164.87;;;86.37;;
10890;SDS011;5498;50.928;11.598;2023-03-25T12:53:38;727.83;;;590.10;;
10890;SDS011;5498;50.928;11.598;2023-03-25T12:56:53;742.57;;;626.60;;
10890;SDS011;5498;50.928;11.598;2023-03-25T13:00:08;742.50;;;631.60;;
10890;SDS011;5498;50.928;11.598;2023-03-25T13:06:52;753.13;;;640.13;;
10890;SDS011;5498;50.928;11.598;2023-03-25T13:10:02;762.23;;;674.60;;
10890;SDS011;5498;50.928;11.598;2023-03-25T13:13:12;753.87;;;642.80;;
10890;SDS011;5498;50.928;11.598;2023-03-25T13:16:21;752.57;;;634.20;;
10890;SDS011;5498;50.928;11.598;2023-03-25T13:19:26;752.83;;;628.70;;
10890;SDS011;5498;50.928;11.598;2023-03-25T13:22:33;755.03;;;631.50;;
10890;SDS011;5498;50.928;11.598;2023-03-25T13:25:41;770.20;;;668.23;;
10890;SDS011;5498;50.928;11.598;2023-03-25T13:28:50;778.43;;;672.87;;
10890;SDS011;5498;50.928;11.598;2023-03-25T13:31:59;775.87;;;671.37;;
10890;SDS011;5498;50.928;11.598;2023-03-25T13:35:06;775.30;;;668.30;;
10890;SDS011;5498;50.928;11.598;2023-03-25T13:38:15;775.07;;;670.13;;
10890;SDS011;5498;50.928;11.598;2023-03-25T13:41:22;789.93;;;702.90;;
10890;SDS011;5498;50.928;11.598;2023-03-25T13:44:31;789.90;;;701.60;;
10890;SDS011;5498;50.928;11.598;2023-03-25T13:47:40;784.50;;;696.33;;
10890;SDS011;5498;50.928;11.598;2023-03-25T13:50:45;784.80;;;697.97;;
10890;SDS011;5498;50.928;11.598;2023-03-25T13:53:48;787.43;;;700.83;;
10890;SDS011;5498;50.928;11.598;2023-03-25T13:57:14;804.87;;;717.40;;
10890;SDS011;5498;50.928;11.598;2023-03-25T14:00:46;789.90;;;702.80;;
10890;SDS011;5498;50.928;11.598;2023-03-25T14:08:01;791.17;;;704.23;;
10890;SDS011;5498;50.928;11.598;2023-03-25T14:11:49;785.40;;;698.43;;
10890;SDS011;5498;50.928;11.598;2023-03-25T14:14:59;814.37;;;726.47;;
10890;SDS011;5498;50.928;11.598;2023-03-25T14:18:04;821.77;;;733.87;;
10890;SDS011;5498;50.928;11.598;2023-03-25T14:21:25;829.43;;;741.33;;
10890;SDS011;5498;50.928;11.598;2023-03-25T14:24:33;840.87;;;752.47;;
10890;SDS011;5498;50.928;11.598;2023-03-25T14:27:36;849.00;;;760.50;;
10890;SDS011;5498;50.928;11.598;2023-03-25T14:30:38;847.57;;;759.17;;
10890;SDS011;5498;50.928;11.598;2023-03-25T14:37:26;840.80;;;752.57;;
10890;SDS011;5498;50.928;11.598;2023-03-25T14:40:44;881.87;;;792.13;;
10890;SDS011;5498;50.928;11.598;2023-03-25T14:43:50;899.73;;;808.43;;
10890;SDS011;5498;50.928;11.598;2023-03-25T14:47:27;887.87;;;797.40;;
10890;SDS011;5498;50.928;11.598;2023-03-25T14:50:32;884.23;;;793.97;;
10890;SDS011;5498;50.928;11.598;2023-03-25T14:53:36;884.83;;;795.53;;
10890;SDS011;5498;50.928;11.598;2023-03-25T14:56:40;887.10;;;797.27;;
10890;SDS011;5498;50.928;11.598;2023-03-25T14:59:49;876.70;;;787.73;;
10890;SDS011;5498;50.928;11.598;2023-03-25T15:02:57;889.23;;;799.37;;
10890;SDS011;5498;50.928;11.598;2023-03-25T15:06:02;891.40;;;801.53;;
10890;SDS011;5498;50.928;11.598;2023-03-25T15:09:08;888.70;;;799.30;;
10890;SDS011;5498;50.928;11.598;2023-03-25T15:12:13;911.73;;;820.90;;
10890;SDS011;5498;50.928;11.598;2023-03-25T15:15:26;903.73;;;813.63;;
10890;SDS011;5498;50.928;11.598;2023-03-25T15:22:16;895.33;;;806.17;;
10890;SDS011;5498;50.928;11.598;2023-03-25T15:25:22;918.23;;;827.30;;
10890;SDS011;5498;50.928;11.598;2023-03-25T15:28:27;909.80;;;819.80;;
10890;SDS011;5498;50.928;11.598;2023-03-25T15:32:06;917.77;;;827.47;;
10890;SDS011;5498;50.928;11.598;2023-03-25T15:38:57;911.43;;;820.77;;
10890;SDS011;5498;50.928;11.598;2023-03-25T15:42:35;896.80;;;807.43;;
10890;SDS011;5498;50.928;11.598;2023-03-25T15:46:00;908.87;;;818.80;;
10890;SDS011;5498;50.928;11.598;2023-03-25T15:57:06;890.10;;;801.37;;
10890;SDS011;5498;50.928;11.598;2023-03-25T16:00:21;891.13;;;802.83;;
10890;SDS011;5498;50.928;11.598;2023-03-25T16:03:28;896.67;;;808.10;;
10890;SDS011;5498;50.928;11.598;2023-03-25T16:06:33;900.37;;;811.77;;
10890;SDS011;5498;50.928;11.598;2023-03-25T16:09:43;890.10;;;801.73;;
10890;SDS011;5498;50.928;11.598;2023-03-25T16:12:48;904.67;;;815.77;;
10890;SDS011;5498;50.928;11.598;2023-03-25T16:15:53;936.43;;;845.27;;
10890;SDS011;5498;50.928;11.598;2023-03-25T16:18:57;925.83;;;835.03;;
10890;SDS011;5498;50.928;11.598;2023-03-25T16:21:59;921.40;;;830.73;;
10890;SDS011;5498;50.928;11.598;2023-03-25T16:25:11;911.53;;;821.50;;
10890;SDS011;5498;50.928;11.598;2023-03-25T16:28:17;922.23;;;831.87;;
10890;SDS011;5498;50.928;11.598;2023-03-25T16:31:29;905.67;;;816.17;;
10890;SDS011;5498;50.928;11.598;2023-03-25T16:34:34;885.93;;;797.77;;
10890;SDS011;5498;50.928;11.598;2023-03-25T16:37:40;883.30;;;795.30;;
10890;SDS011;5498;50.928;11.598;2023-03-25T16:40:42;900.03;;;811.20;;
10890;SDS011;5498;50.928;11.598;2023-03-25T16:43:46;873.90;;;786.40;;
10890;SDS011;5498;50.928;11.598;2023-03-25T16:46:50;869.23;;;782.23;;
10890;SDS011;5498;50.928;11.598;2023-03-25T16:49:54;847.87;;;761.70;;
10890;SDS011;5498;50.928;11.598;2023-03-25T16:52:57;848.43;;;762.17;;
10890;SDS011;5498;50.928;11.598;2023-03-25T16:56:02;832.80;;;747.23;;
10890;SDS011;5498;50.928;11.598;2023-03-25T16:59:23;832.60;;;746.90;;
10890;SDS011;5498;50.928;11.598;2023-03-25T17:02:30;861.53;;;774.13;;
10890;SDS011;5498;50.928;11.598;2023-03-25T17:05:50;860.67;;;773.00;;
10890;SDS011;5498;50.928;11.598;2023-03-25T17:08:58;831.00;;;744.90;;
10890;SDS011;5498;50.928;11.598;2023-03-25T17:12:01;839.23;;;752.77;;
10890;SDS011;5498;50.928;11.598;2023-03-25T17:15:10;832.07;;;746.00;;
10890;SDS011;5498;50.928;11.598;2023-03-25T17:18:17;841.70;;;754.80;;
10890;SDS011;5498;50.928;11.598;2023-03-25T17:21:24;833.07;;;746.90;;
10890;SDS011;5498;50.928;11.598;2023-03-25T17:24:35;826.30;;;740.47;;
10890;SDS011;5498;50.928;11.598;2023-03-25T17:27:41;823.37;;;737.33;;
10890;SDS011;5498;50.928;11.598;2023-03-25T17:30:44;813.53;;;728.23;;
10890;SDS011;5498;50.928;11.598;2023-03-25T17:33:48;810.90;;;726.10;;
10890;SDS011;5498;50.928;11.598;2023-03-25T17:36:55;814.47;;;728.80;;
10890;SDS011;5498;50.928;11.598;2023-03-25T17:40:00;821.27;;;735.30;;
10890;SDS011;5498;50.928;11.598;2023-03-25T17:43:15;806.50;;;721.23;;
10890;SDS011;5498;50.928;11.598;2023-03-25T17:46:20;800.40;;;715.67;;
10890;SDS011;5498;50.928;11.598;2023-03-25T17:49:25;782.80;;;698.57;;
10890;SDS011;5498;50.928;11.598;2023-03-25T17:52:27;779.00;;;695.00;;
10890;SDS011;5498;50.928;11.598;2023-03-25T17:55:30;791.97;;;707.33;;
10890;SDS011;5498;50.928;11.598;2023-03-25T17:58:32;820.03;;;733.77;;
10890;SDS011;5498;50.928;11.598;2023-03-25T18:01:34;859.87;;;770.97;;
10890;SDS011;5498;50.928;11.598;2023-03-25T18:04:37;840.67;;;752.50;;
10890;SDS011;5498;50.928;11.598;2023-03-25T18:07:39;854.47;;;765.67;;
10890;SDS011;5498;50.928;11.598;2023-03-25T18:10:41;850.87;;;762.70;;
10890;SDS011;5498;50.928;11.598;2023-03-25T18:13:43;846.00;;;758.00;;
10890;SDS011;5498;50.928;11.598;2023-03-25T18:16:47;843.13;;;755.33;;
10890;SDS011;5498;50.928;11.598;2023-03-25T18:19:50;852.73;;;764.40;;